sensor_id;sensor_type;location;lat;lon;timestamp;pressure;altitude;pressure_sealevel;temperature;humidity
11971;BME280;6045;42.682;23.294;2022-10-30T00:00:54;95385.94;;;13.34;65.06
11971;BME280;6045;42.682;23.294;2022-10-30T00:03:21;95390.69;;;13.21;65.79
11971;BME280;6045;42.682;23.294;2022-10-30T00:05:49;95382.59;;;13.09;66.31
11971;BME280;6045;42.682;23.294;2022-10-30T00:08:18;95382.41;;;13.04;66.22
11971;BME280;6045;42.682;23.294;2022-10-30T00:10:47;95372.13;;;13.01;66.18
11971;BME280;6045;42.682;23.294;2022-10-30T00:13:15;95382.50;;;12.97;66.41
11971;BME280;6045;42.682;23.294;2022-10-30T00:15:46;95376.91;;;12.99;66.42
11971;BME280;6045;42.682;23.294;2022-10-30T00:18:13;95382.59;;;13.09;66.40
11971;BME280;6045;42.682;23.294;2022-10-30T00:20:40;95389.72;;;13.15;66.06
11971;BME280;6045;42.682;23.294;2022-10-30T00:23:07;95389.72;;;13.15;65.99
11971;BME280;6045;42.682;23.294;2022-10-30T00:25:33;95380.50;;;13.11;65.98
11971;BME280;6045;42.682;23.294;2022-10-30T00:28:02;95387.38;;;13.07;66.15
11971;BME280;6045;42.682;23.294;2022-10-30T00:30:29;95393.91;;;13.11;65.88
11971;BME280;6045;42.682;23.294;2022-10-30T00:32:56;95386.69;;;13.12;66.01
11971;BME280;6045;42.682;23.294;2022-10-30T00:35:23;95392.84;;;13.12;65.47
11971;BME280;6045;42.682;23.294;2022-10-30T00:37:50;95386.72;;;13.05;65.62
11971;BME280;6045;42.682;23.294;2022-10-30T00:40:17;95383.44;;;13.03;65.85
11971;BME280;6045;42.682;23.294;2022-10-30T00:42:44;95378.84;;;13.10;65.59
11971;BME280;6045;42.682;23.294;2022-10-30T00:45:14;95373.03;;;13.13;65.59
11971;BME280;6045;42.682;23.294;2022-10-30T00:47:42;95373.03;;;13.13;65.38
11971;BME280;6045;42.682;23.294;2022-10-30T00:50:13;95377.34;;;13.14;65.66
11971;BME280;6045;42.682;23.294;2022-10-30T00:52:47;95380.50;;;13.11;65.42
11971;BME280;6045;42.682;23.294;2022-10-30T00:55:17;95385.28;;;13.09;65.64
11971;BME280;6045;42.682;23.294;2022-10-30T00:57:46;95367.06;;;13.11;65.90
11971;BME280;6045;42.682;23.294;2022-10-30T01:00:18;95371.59;;;13.11;65.62
11971;BME280;6045;42.682;23.294;2022-10-30T01:02:46;95367.75;;;13.07;65.79
11971;BME280;6045;42.682;23.294;2022-10-30T01:05:15;95367.34;;;13.03;65.73
11971;BME280;6045;42.682;23.294;2022-10-30T01:07:43;95365.13;;;13.00;65.95
11971;BME280;6045;42.682;23.294;2022-10-30T01:10:11;95365.78;;;12.95;65.96
11971;BME280;6045;42.682;23.294;2022-10-30T01:12:39;95354.09;;;12.90;66.35
11971;BME280;6045;42.682;23.294;2022-10-30T01:15:07;95348.69;;;12.78;66.49
11971;BME280;6045;42.682;23.294;2022-10-30T01:17:56;95347.56;;;12.68;67.17
11971;BME280;6045;42.682;23.294;2022-10-30T01:20:41;95346.81;;;12.61;67.31
11971;BME280;6045;42.682;23.294;2022-10-30T01:23:22;95341.38;;;12.67;67.38
11971;BME280;6045;42.682;23.294;2022-10-30T01:25:55;95340.09;;;12.70;67.06
11971;BME280;6045;42.682;23.294;2022-10-30T01:28:37;95336.91;;;12.61;67.29
11971;BME280;6045;42.682;23.294;2022-10-30T01:31:15;95342.38;;;12.55;67.90
11971;BME280;6045;42.682;23.294;2022-10-30T01:33:55;95343.41;;;12.54;67.66
11971;BME280;6045;42.682;23.294;2022-10-30T01:36:30;95345.47;;;12.52;67.25
11971;BME280;6045;42.682;23.294;2022-10-30T01:39:02;95346.81;;;12.43;67.18
11971;BME280;6045;42.682;23.294;2022-10-30T01:41:31;95340.06;;;12.40;67.38
11971;BME280;6045;42.682;23.294;2022-10-30T01:44:01;95345.19;;;12.42;67.40
11971;BME280;6045;42.682;23.294;2022-10-30T01:46:38;95336.78;;;12.38;67.70
11971;BME280;6045;42.682;23.294;2022-10-30T01:49:24;95337.81;;;12.37;68.08
11971;BME280;6045;42.682;23.294;2022-10-30T01:52:01;95331.41;;;12.38;68.03
11971;BME280;6045;42.682;23.294;2022-10-30T01:54:37;95332.75;;;12.47;67.75
11971;BME280;6045;42.682;23.294;2022-10-30T01:57:11;95334.16;;;12.50;67.62
11971;BME280;6045;42.682;23.294;2022-10-30T01:59:45;95341.16;;;12.51;67.29
11971;BME280;6045;42.682;23.294;2022-10-30T02:02:13;95338.47;;;12.51;67.32
11971;BME280;6045;42.682;23.294;2022-10-30T02:04:42;95332.31;;;12.50;67.39
11971;BME280;6045;42.682;23.294;2022-10-30T02:07:09;95332.75;;;12.47;67.96
11971;BME280;6045;42.682;23.294;2022-10-30T02:09:37;95330.31;;;12.46;68.00
11971;BME280;6045;42.682;23.294;2022-10-30T02:12:04;95333.56;;;12.48;67.74
11971;BME280;6045;42.682;23.294;2022-10-30T02:14:35;95333.09;;;12.51;67.74
11971;BME280;6045;42.682;23.294;2022-10-30T02:17:04;95330.22;;;12.52;67.39
11971;BME280;6045;42.682;23.294;2022-10-30T02:19:32;95322.19;;;12.52;67.16
11971;BME280;6045;42.682;23.294;2022-10-30T02:22:00;95323.44;;;12.50;66.81
11971;BME280;6045;42.682;23.294;2022-10-30T02:24:27;95322.63;;;12.49;67.06
11971;BME280;6045;42.682;23.294;2022-10-30T02:26:54;95316.75;;;12.41;67.76
11971;BME280;6045;42.682;23.294;2022-10-30T02:29:21;95317.41;;;12.36;69.13
11971;BME280;6045;42.682;23.294;2022-10-30T02:31:47;95314.19;;;12.27;68.91
11971;BME280;6045;42.682;23.294;2022-10-30T02:34:15;95328.28;;;12.23;68.77
11971;BME280;6045;42.682;23.294;2022-10-30T02:36:42;95322.09;;;12.22;68.26
11971;BME280;6045;42.682;23.294;2022-10-30T02:39:10;95315.63;;;12.12;69.42
11971;BME280;6045;42.682;23.294;2022-10-30T02:41:37;95317.16;;;12.01;69.45
11971;BME280;6045;42.682;23.294;2022-10-30T02:44:04;95315.28;;;12.02;70.00
11971;BME280;6045;42.682;23.294;2022-10-30T02:46:31;95314.03;;;12.04;69.73
11971;BME280;6045;42.682;23.294;2022-10-30T02:48:58;95329.91;;;12.06;69.07
11971;BME280;6045;42.682;23.294;2022-10-30T02:51:24;95327.22;;;12.06;69.22
11971;BME280;6045;42.682;23.294;2022-10-30T02:53:51;95332.13;;;12.09;69.06
11971;BME280;6045;42.682;23.294;2022-10-30T02:56:19;95332.72;;;12.11;69.29
11971;BME280;6045;42.682;23.294;2022-10-30T02:58:46;95324.69;;;12.11;68.60
11971;BME280;6045;42.682;23.294;2022-10-30T03:01:15;95335.41;;;12.11;69.02
11971;BME280;6045;42.682;23.294;2022-10-30T03:03:42;95330.44;;;12.14;68.47
11971;BME280;6045;42.682;23.294;2022-10-30T03:06:10;95330.00;;;12.17;68.67
11971;BME280;6045;42.682;23.294;2022-10-30T03:08:38;95329.31;;;12.22;68.37
11971;BME280;6045;42.682;23.294;2022-10-30T03:11:06;95333.88;;;12.21;67.78
11971;BME280;6045;42.682;23.294;2022-10-30T03:13:36;95339.97;;;12.10;67.45
11971;BME280;6045;42.682;23.294;2022-10-30T03:16:07;95342.66;;;12.10;68.93
11971;BME280;6045;42.682;23.294;2022-10-30T03:18:35;95346.94;;;12.11;69.04
11971;BME280;6045;42.682;23.294;2022-10-30T03:21:04;95344.50;;;12.10;68.75
11971;BME280;6045;42.682;23.294;2022-10-30T03:23:31;95351.94;;;12.08;68.56
11971;BME280;6045;42.682;23.294;2022-10-30T03:25:58;95350.06;;;12.08;68.23
11971;BME280;6045;42.682;23.294;2022-10-30T03:28:27;95347.38;;;12.08;67.83
11971;BME280;6045;42.682;23.294;2022-10-30T03:30:59;95345.44;;;11.97;68.55
11971;BME280;6045;42.682;23.294;2022-10-30T03:33:26;95342.31;;;12.00;68.43
11971;BME280;6045;42.682;23.294;2022-10-30T03:35:53;95333.88;;;11.97;68.64
11971;BME280;6045;42.682;23.294;2022-10-30T03:38:20;95342.53;;;11.99;68.99
11971;BME280;6045;42.682;23.294;2022-10-30T03:40:47;95351.78;;;12.03;69.19
11971;BME280;6045;42.682;23.294;2022-10-30T03:43:14;95339.63;;;12.00;68.43
11971;BME280;6045;42.682;23.294;2022-10-30T03:45:45;95344.00;;;11.95;68.78
11971;BME280;6045;42.682;23.294;2022-10-30T03:48:14;95340.56;;;11.88;68.84
11971;BME280;6045;42.682;23.294;2022-10-30T03:50:41;95345.16;;;11.81;69.01
11971;BME280;6045;42.682;23.294;2022-10-30T03:53:08;95339.44;;;11.77;69.69
11971;BME280;6045;42.682;23.294;2022-10-30T03:55:35;95339.44;;;11.77;69.78
11971;BME280;6045;42.682;23.294;2022-10-30T03:58:02;95332.84;;;11.80;69.42
11971;BME280;6045;42.682;23.294;2022-10-30T04:00:29;95329.16;;;11.74;69.32
11971;BME280;6045;42.682;23.294;2022-10-30T04:02:56;95330.19;;;11.73;69.37
11971;BME280;6045;42.682;23.294;2022-10-30T04:05:25;95328.56;;;11.72;69.36
11971;BME280;6045;42.682;23.294;2022-10-30T04:07:54;95317.66;;;11.67;69.56
11971;BME280;6045;42.682;23.294;2022-10-30T04:10:22;95327.59;;;11.60;70.15
11971;BME280;6045;42.682;23.294;2022-10-30T04:12:49;95323.06;;;11.60;70.88
11971;BME280;6045;42.682;23.294;2022-10-30T04:15:16;95324.25;;;11.64;70.44
11971;BME280;6045;42.682;23.294;2022-10-30T04:17:47;95336.41;;;11.67;70.22
11971;BME280;6045;42.682;23.294;2022-10-30T04:20:15;95331.09;;;11.60;69.38
11971;BME280;6045;42.682;23.294;2022-10-30T04:22:43;95325.19;;;11.52;69.76
11971;BME280;6045;42.682;23.294;2022-10-30T04:25:10;95326.84;;;11.53;70.05
11971;BME280;6045;42.682;23.294;2022-10-30T04:27:41;95322.75;;;11.50;70.05
11971;BME280;6045;42.682;23.294;2022-10-30T04:30:09;95324.47;;;11.38;70.33
11971;BME280;6045;42.682;23.294;2022-10-30T04:32:44;95323.50;;;11.33;70.66
11971;BME280;6045;42.682;23.294;2022-10-30T04:35:12;95324.53;;;11.32;70.56
11971;BME280;6045;42.682;23.294;2022-10-30T04:37:39;95330.31;;;11.29;70.82
11971;BME280;6045;42.682;23.294;2022-10-30T04:40:08;95328.09;;;11.26;71.04
11971;BME280;6045;42.682;23.294;2022-10-30T04:42:35;95330.31;;;11.29;71.39
11971;BME280;6045;42.682;23.294;2022-10-30T04:45:02;95334.81;;;11.35;70.79
11971;BME280;6045;42.682;23.294;2022-10-30T04:47:29;95329.47;;;11.35;70.49
11971;BME280;6045;42.682;23.294;2022-10-30T04:49:56;95328.47;;;11.29;70.50
11971;BME280;6045;42.682;23.294;2022-10-30T04:52:23;95332.22;;;11.22;70.64
11971;BME280;6045;42.682;23.294;2022-10-30T04:54:50;95341.72;;;11.18;70.79
11971;BME280;6045;42.682;23.294;2022-10-30T04:57:18;95346.88;;;11.13;71.15
11971;BME280;6045;42.682;23.294;2022-10-30T04:59:45;95341.09;;;11.16;71.18
11971;BME280;6045;42.682;23.294;2022-10-30T05:02:12;95340.28;;;11.15;71.04
11971;BME280;6045;42.682;23.294;2022-10-30T05:04:38;95338.25;;;11.11;70.98
11971;BME280;6045;42.682;23.294;2022-10-30T05:07:05;95338.72;;;11.01;71.71
11971;BME280;6045;42.682;23.294;2022-10-30T05:09:32;95351.25;;;11.00;71.66
11971;BME280;6045;42.682;23.294;2022-10-30T05:11:59;95350.84;;;11.04;71.25
11971;BME280;6045;42.682;23.294;2022-10-30T05:14:29;95350.19;;;11.08;71.50
11971;BME280;6045;42.682;23.294;2022-10-30T05:16:56;95356.28;;;11.22;71.73
11971;BME280;6045;42.682;23.294;2022-10-30T05:19:23;95360.28;;;11.44;70.57
11971;BME280;6045;42.682;23.294;2022-10-30T05:21:50;95355.06;;;11.80;69.10
11971;BME280;6045;42.682;23.294;2022-10-30T05:24:17;95350.81;;;12.15;75.35
11971;BME280;6045;42.682;23.294;2022-10-30T05:26:44;95351.88;;;12.51;69.73
11971;BME280;6045;42.682;23.294;2022-10-30T05:29:11;95346.72;;;13.33;66.50
11971;BME280;6045;42.682;23.294;2022-10-30T05:31:39;95351.56;;;13.66;63.32
11971;BME280;6045;42.682;23.294;2022-10-30T05:34:06;95349.13;;;13.64;62.05
11971;BME280;6045;42.682;23.294;2022-10-30T05:36:35;95354.78;;;13.75;61.85
11971;BME280;6045;42.682;23.294;2022-10-30T05:39:02;95358.19;;;14.74;59.18
11971;BME280;6045;42.682;23.294;2022-10-30T05:41:30;95353.69;;;15.76;56.16
11971;BME280;6045;42.682;23.294;2022-10-30T05:43:57;95338.81;;;16.78;54.15
11971;BME280;6045;42.682;23.294;2022-10-30T05:46:24;95346.56;;;17.61;51.26
11971;BME280;6045;42.682;23.294;2022-10-30T05:48:52;95345.88;;;18.44;48.94
11971;BME280;6045;42.682;23.294;2022-10-30T05:51:20;95327.59;;;19.13;47.17
11971;BME280;6045;42.682;23.294;2022-10-30T05:53:47;95335.66;;;19.75;45.40
11971;BME280;6045;42.682;23.294;2022-10-30T05:56:14;95334.34;;;20.33;43.92
11971;BME280;6045;42.682;23.294;2022-10-30T05:58:42;95340.75;;;20.93;42.77
11971;BME280;6045;42.682;23.294;2022-10-30T06:01:09;95337.28;;;21.51;41.23
11971;BME280;6045;42.682;23.294;2022-10-30T06:03:40;95334.00;;;21.98;40.40
11971;BME280;6045;42.682;23.294;2022-10-30T06:06:09;95337.22;;;22.39;39.92
11971;BME280;6045;42.682;23.294;2022-10-30T06:08:36;95340.78;;;22.68;38.58
11971;BME280;6045;42.682;23.294;2022-10-30T06:11:03;95337.34;;;22.86;38.51
11971;BME280;6045;42.682;23.294;2022-10-30T06:13:30;95336.53;;;23.33;38.23
11971;BME280;6045;42.682;23.294;2022-10-30T06:15:57;95340.44;;;23.69;36.82
11971;BME280;6045;42.682;23.294;2022-10-30T06:18:24;95342.97;;;24.03;36.57
11971;BME280;6045;42.682;23.294;2022-10-30T06:20:50;95344.81;;;23.89;42.04
11971;BME280;6045;42.682;23.294;2022-10-30T06:23:18;95340.66;;;24.29;39.63
11971;BME280;6045;42.682;23.294;2022-10-30T06:25:45;95344.31;;;24.57;39.12
11971;BME280;6045;42.682;23.294;2022-10-30T06:28:14;95345.16;;;25.03;37.90
11971;BME280;6045;42.682;23.294;2022-10-30T06:30:41;95338.25;;;25.33;36.78
11971;BME280;6045;42.682;23.294;2022-10-30T06:33:08;95344.69;;;25.55;36.22
11971;BME280;6045;42.682;23.294;2022-10-30T06:35:35;95349.09;;;25.78;35.44
11971;BME280;6045;42.682;23.294;2022-10-30T06:38:02;95349.28;;;25.82;36.16
11971;BME280;6045;42.682;23.294;2022-10-30T06:40:30;95347.22;;;26.01;36.07
11971;BME280;6045;42.682;23.294;2022-10-30T06:42:57;95341.97;;;26.27;33.59
11971;BME280;6045;42.682;23.294;2022-10-30T06:45:24;95342.59;;;26.24;33.98
11971;BME280;6045;42.682;23.294;2022-10-30T06:47:51;95338.63;;;26.30;33.96
11971;BME280;6045;42.682;23.294;2022-10-30T06:50:20;95351.34;;;26.48;34.54
11971;BME280;6045;42.682;23.294;2022-10-30T06:52:48;95359.22;;;26.63;34.88
11971;BME280;6045;42.682;23.294;2022-10-30T06:55:15;95367.72;;;27.06;33.39
11971;BME280;6045;42.682;23.294;2022-10-30T06:57:52;95354.59;;;26.72;31.65
11971;BME280;6045;42.682;23.294;2022-10-30T07:00:19;95354.59;;;26.72;30.75
11971;BME280;6045;42.682;23.294;2022-10-30T07:02:54;95351.50;;;26.74;33.67
11971;BME280;6045;42.682;23.294;2022-10-30T07:05:20;95354.16;;;27.09;33.04
11971;BME280;6045;42.682;23.294;2022-10-30T07:07:47;95358.09;;;27.48;32.60
11971;BME280;6045;42.682;23.294;2022-10-30T07:10:14;95362.44;;;27.49;32.31
11971;BME280;6045;42.682;23.294;2022-10-30T07:12:41;95352.03;;;27.85;30.75
11971;BME280;6045;42.682;23.294;2022-10-30T07:15:09;95357.94;;;28.26;29.91
11971;BME280;6045;42.682;23.294;2022-10-30T07:17:36;95353.59;;;28.60;29.65
11971;BME280;6045;42.682;23.294;2022-10-30T07:20:03;95343.03;;;28.87;28.75
11971;BME280;6045;42.682;23.294;2022-10-30T07:22:30;95347.88;;;28.90;28.60
11971;BME280;6045;42.682;23.294;2022-10-30T07:24:57;95343.16;;;28.99;28.41
11971;BME280;6045;42.682;23.294;2022-10-30T07:27:24;95346.53;;;29.22;27.72
11971;BME280;6045;42.682;23.294;2022-10-30T07:29:51;95341.34;;;29.12;28.29
11971;BME280;6045;42.682;23.294;2022-10-30T07:32:19;95341.88;;;28.88;28.60
11971;BME280;6045;42.682;23.294;2022-10-30T07:34:46;95339.31;;;28.75;29.04
11971;BME280;6045;42.682;23.294;2022-10-30T07:37:12;95333.00;;;28.83;29.04
11971;BME280;6045;42.682;23.294;2022-10-30T07:39:39;95332.19;;;28.82;28.95
11971;BME280;6045;42.682;23.294;2022-10-30T07:42:06;95343.56;;;28.64;29.89
11971;BME280;6045;42.682;23.294;2022-10-30T07:44:33;95336.41;;;28.54;30.10
11971;BME280;6045;42.682;23.294;2022-10-30T07:46:59;95341.09;;;28.19;30.50
11971;BME280;6045;42.682;23.294;2022-10-30T07:49:27;95337.34;;;27.98;31.03
11971;BME280;6045;42.682;23.294;2022-10-30T07:51:54;95328.84;;;27.43;30.28
11971;BME280;6045;42.682;23.294;2022-10-30T07:54:21;95324.56;;;26.98;32.29
11971;BME280;6045;42.682;23.294;2022-10-30T07:56:48;95328.03;;;26.81;32.56
11971;BME280;6045;42.682;23.294;2022-10-30T07:59:15;95321.81;;;26.98;32.11
11971;BME280;6045;42.682;23.294;2022-10-30T08:01:41;95317.84;;;27.52;30.48
11971;BME280;6045;42.682;23.294;2022-10-30T08:04:08;95310.38;;;28.00;29.70
11971;BME280;6045;42.682;23.294;2022-10-30T08:06:39;95313.28;;;28.12;29.73
11971;BME280;6045;42.682;23.294;2022-10-30T08:09:06;95312.34;;;28.17;29.47
11971;BME280;6045;42.682;23.294;2022-10-30T08:11:33;95305.03;;;28.38;29.55
11971;BME280;6045;42.682;23.294;2022-10-30T08:14:00;95307.78;;;28.29;29.90
11971;BME280;6045;42.682;23.294;2022-10-30T08:16:27;95307.78;;;28.04;30.38
11971;BME280;6045;42.682;23.294;2022-10-30T08:18:54;95299.16;;;27.62;31.65
11971;BME280;6045;42.682;23.294;2022-10-30T08:21:21;95300.00;;;27.97;30.87
11971;BME280;6045;42.682;23.294;2022-10-30T08:23:49;95299.72;;;28.07;30.83
11971;BME280;6045;42.682;23.294;2022-10-30T08:26:16;95296.47;;;28.22;30.25
11971;BME280;6045;42.682;23.294;2022-10-30T08:28:43;95299.16;;;28.74;28.97
11971;BME280;6045;42.682;23.294;2022-10-30T08:31:10;95298.97;;;28.96;28.63
11971;BME280;6045;42.682;23.294;2022-10-30T08:33:37;95300.16;;;28.69;29.62
11971;BME280;6045;42.682;23.294;2022-10-30T08:36:05;95303.09;;;28.38;30.21
11971;BME280;6045;42.682;23.294;2022-10-30T08:38:32;95303.41;;;28.45;30.64
11971;BME280;6045;42.682;23.294;2022-10-30T08:41:00;95294.69;;;28.52;29.88
11971;BME280;6045;42.682;23.294;2022-10-30T08:43:27;95301.50;;;29.18;28.95
11971;BME280;6045;42.682;23.294;2022-10-30T08:45:56;95293.78;;;28.86;29.39
11971;BME280;6045;42.682;23.294;2022-10-30T08:48:23;95296.44;;;28.57;29.76
11971;BME280;6045;42.682;23.294;2022-10-30T08:50:50;95298.72;;;27.86;31.45
11971;BME280;6045;42.682;23.294;2022-10-30T08:53:17;95296.59;;;27.92;31.55
11971;BME280;6045;42.682;23.294;2022-10-30T08:55:44;95289.19;;;28.35;30.83
11971;BME280;6045;42.682;23.294;2022-10-30T08:58:13;95284.19;;;28.11;31.09
11971;BME280;6045;42.682;23.294;2022-10-30T09:00:39;95291.59;;;28.19;31.28
11971;BME280;6045;42.682;23.294;2022-10-30T09:03:06;95282.34;;;28.75;29.86
11971;BME280;6045;42.682;23.294;2022-10-30T09:05:33;95279.84;;;29.37;28.84
11971;BME280;6045;42.682;23.294;2022-10-30T09:08:01;95277.03;;;29.75;28.64
11971;BME280;6045;42.682;23.294;2022-10-30T09:10:28;95275.81;;;30.14;27.67
11971;BME280;6045;42.682;23.294;2022-10-30T09:12:56;95271.09;;;30.35;27.37
11971;BME280;6045;42.682;23.294;2022-10-30T09:15:25;95263.56;;;30.23;27.73
11971;BME280;6045;42.682;23.294;2022-10-30T09:17:56;95260.81;;;30.03;28.08
11971;BME280;6045;42.682;23.294;2022-10-30T09:20:23;95262.13;;;29.76;28.86
11971;BME280;6045;42.682;23.294;2022-10-30T09:22:50;95264.31;;;29.91;27.93
11971;BME280;6045;42.682;23.294;2022-10-30T09:25:17;95269.47;;;30.13;27.72
11971;BME280;6045;42.682;23.294;2022-10-30T09:27:44;95267.66;;;29.97;27.36
11971;BME280;6045;42.682;23.294;2022-10-30T09:30:11;95266.56;;;29.39;28.98
11971;BME280;6045;42.682;23.294;2022-10-30T09:32:39;95262.09;;;29.18;29.26
11971;BME280;6045;42.682;23.294;2022-10-30T09:35:07;95258.19;;;29.27;29.34
11971;BME280;6045;42.682;23.294;2022-10-30T09:37:34;95261.19;;;29.05;30.21
11971;BME280;6045;42.682;23.294;2022-10-30T09:40:02;95256.75;;;29.21;30.41
11971;BME280;6045;42.682;23.294;2022-10-30T09:42:41;95244.47;;;29.68;29.37
11971;BME280;6045;42.682;23.294;2022-10-30T09:45:23;95240.41;;;28.70;29.96
11971;BME280;6045;42.682;23.294;2022-10-30T09:48:02;95240.84;;;28.08;30.76
11971;BME280;6045;42.682;23.294;2022-10-30T09:50:35;95231.41;;;28.43;31.47
11971;BME280;6045;42.682;23.294;2022-10-30T09:53:13;95236.25;;;29.39;29.92
11971;BME280;6045;42.682;23.294;2022-10-30T09:55:44;95228.94;;;30.47;27.78
11971;BME280;6045;42.682;23.294;2022-10-30T09:58:21;95221.59;;;31.07;27.39
11971;BME280;6045;42.682;23.294;2022-10-30T10:00:57;95224.59;;;30.58;27.23
11971;BME280;6045;42.682;23.294;2022-10-30T10:03:40;95213.69;;;30.08;27.52
11971;BME280;6045;42.682;23.294;2022-10-30T10:06:16;95209.94;;;30.12;28.54
11971;BME280;6045;42.682;23.294;2022-10-30T10:08:46;95202.47;;;30.45;27.98
11971;BME280;6045;42.682;23.294;2022-10-30T10:11:17;95204.09;;;30.91;26.72
11971;BME280;6045;42.682;23.294;2022-10-30T10:13:49;95193.06;;;30.91;27.23
11971;BME280;6045;42.682;23.294;2022-10-30T10:16:18;95190.69;;;30.69;27.29
11971;BME280;6045;42.682;23.294;2022-10-30T10:18:50;95183.97;;;30.46;27.64
11971;BME280;6045;42.682;23.294;2022-10-30T10:21:24;95185.75;;;30.63;27.75
11971;BME280;6045;42.682;23.294;2022-10-30T10:23:55;95175.09;;;31.22;27.42
11971;BME280;6045;42.682;23.294;2022-10-30T10:26:29;95177.63;;;31.51;26.37
11971;BME280;6045;42.682;23.294;2022-10-30T10:29:28;95172.34;;;31.09;26.35
11971;BME280;6045;42.682;23.294;2022-10-30T10:32:18;95171.78;;;31.80;26.26
11971;BME280;6045;42.682;23.294;2022-10-30T10:37:48;95164.56;;;32.59;24.40
11971;BME280;6045;42.682;23.294;2022-10-30T10:40:28;95160.72;;;32.79;24.93
11971;BME280;6045;42.682;23.294;2022-10-30T10:43:12;95148.00;;;33.56;23.49
11971;BME280;6045;42.682;23.294;2022-10-30T10:45:47;95149.44;;;33.34;23.78
11971;BME280;6045;42.682;23.294;2022-10-30T10:48:39;95141.06;;;33.65;23.48
11971;BME280;6045;42.682;23.294;2022-10-30T10:51:14;95141.59;;;33.90;22.67
11971;BME280;6045;42.682;23.294;2022-10-30T10:53:44;95144.75;;;34.08;22.69
11971;BME280;6045;42.682;23.294;2022-10-30T10:56:12;95135.75;;;34.33;22.11
11971;BME280;6045;42.682;23.294;2022-10-30T10:58:44;95134.66;;;34.19;22.63
11971;BME280;6045;42.682;23.294;2022-10-30T11:01:17;95136.13;;;33.94;22.07
11971;BME280;6045;42.682;23.294;2022-10-30T11:03:53;95132.41;;;33.86;22.66
11971;BME280;6045;42.682;23.294;2022-10-30T11:06:25;95125.97;;;33.82;22.17
11971;BME280;6045;42.682;23.294;2022-10-30T11:08:59;95115.94;;;33.97;22.87
11971;BME280;6045;42.682;23.294;2022-10-30T11:11:28;95121.81;;;34.11;22.92
11971;BME280;6045;42.682;23.294;2022-10-30T11:13:55;95107.19;;;34.33;22.61
11971;BME280;6045;42.682;23.294;2022-10-30T11:16:26;95106.53;;;34.85;21.90
11971;BME280;6045;42.682;23.294;2022-10-30T11:18:57;95104.25;;;34.90;22.19
11971;BME280;6045;42.682;23.294;2022-10-30T11:21:28;95095.75;;;34.57;21.72
11971;BME280;6045;42.682;23.294;2022-10-30T11:23:57;95099.09;;;34.47;22.22
11971;BME280;6045;42.682;23.294;2022-10-30T11:26:32;95098.25;;;34.66;21.10
11971;BME280;6045;42.682;23.294;2022-10-30T11:29:04;95097.06;;;34.89;21.95
11971;BME280;6045;42.682;23.294;2022-10-30T11:31:37;95092.72;;;35.15;21.10
11971;BME280;6045;42.682;23.294;2022-10-30T11:34:23;95086.34;;;35.66;20.84
11971;BME280;6045;42.682;23.294;2022-10-30T11:36:52;95083.06;;;35.91;20.67
11971;BME280;6045;42.682;23.294;2022-10-30T11:39:21;95084.03;;;36.38;19.77
11971;BME280;6045;42.682;23.294;2022-10-30T11:41:54;95081.13;;;36.65;20.01
11971;BME280;6045;42.682;23.294;2022-10-30T11:44:22;95075.66;;;36.38;20.49
11971;BME280;6045;42.682;23.294;2022-10-30T11:46:50;95073.94;;;36.64;19.77
11971;BME280;6045;42.682;23.294;2022-10-30T11:49:28;95063.59;;;36.64;19.96
11971;BME280;6045;42.682;23.294;2022-10-30T11:51:58;95064.91;;;36.77;19.59
11971;BME280;6045;42.682;23.294;2022-10-30T11:54:26;95072.38;;;36.66;20.08
11971;BME280;6045;42.682;23.294;2022-10-30T11:56:53;95064.19;;;36.91;19.49
11971;BME280;6045;42.682;23.294;2022-10-30T11:59:22;95062.84;;;37.18;19.37
11971;BME280;6045;42.682;23.294;2022-10-30T12:02:00;95063.44;;;37.48;19.04
11971;BME280;6045;42.682;23.294;2022-10-30T12:04:28;95062.19;;;37.39;19.32
11971;BME280;6045;42.682;23.294;2022-10-30T12:07:13;95062.59;;;37.41;19.08
11971;BME280;6045;42.682;23.294;2022-10-30T12:09:44;95056.00;;;37.05;18.58
11971;BME280;6045;42.682;23.294;2022-10-30T12:12:17;95056.47;;;36.67;19.06
11971;BME280;6045;42.682;23.294;2022-10-30T12:14:45;95055.19;;;36.61;19.14
11971;BME280;6045;42.682;23.294;2022-10-30T12:17:13;95054.72;;;36.52;19.59
11971;BME280;6045;42.682;23.294;2022-10-30T12:19:45;95059.78;;;36.43;19.02
11971;BME280;6045;42.682;23.294;2022-10-30T12:22:26;95058.28;;;36.12;19.72
11971;BME280;6045;42.682;23.294;2022-10-30T12:24:53;95041.50;;;36.05;19.85
11971;BME280;6045;42.682;23.294;2022-10-30T12:27:22;95042.94;;;35.92;20.08
11971;BME280;6045;42.682;23.294;2022-10-30T12:30:00;95045.16;;;36.12;19.57
11971;BME280;6045;42.682;23.294;2022-10-30T12:32:36;95037.53;;;36.06;19.84
11971;BME280;6045;42.682;23.294;2022-10-30T12:35:13;95036.88;;;36.19;19.96
11971;BME280;6045;42.682;23.294;2022-10-30T12:37:43;95031.34;;;35.90;20.44
11971;BME280;6045;42.682;23.294;2022-10-30T12:40:15;95029.97;;;35.14;20.68
11971;BME280;6045;42.682;23.294;2022-10-30T12:42:54;95029.84;;;34.35;21.37
11971;BME280;6045;42.682;23.294;2022-10-30T12:45:28;95025.06;;;34.55;23.09
11971;BME280;6045;42.682;23.294;2022-10-30T12:48:00;95027.78;;;33.87;21.11
11971;BME280;6045;42.682;23.294;2022-10-30T12:50:34;95022.81;;;33.77;20.68
11971;BME280;6045;42.682;23.294;2022-10-30T12:53:13;95022.09;;;34.21;22.90
11971;BME280;6045;42.682;23.294;2022-10-30T12:55:47;95017.72;;;34.01;21.52
11971;BME280;6045;42.682;23.294;2022-10-30T12:58:22;95021.16;;;34.14;21.74
11971;BME280;6045;42.682;23.294;2022-10-30T13:00:57;95017.28;;;34.41;22.22
11971;BME280;6045;42.682;23.294;2022-10-30T13:03:29;95014.44;;;34.86;20.84
11971;BME280;6045;42.682;23.294;2022-10-30T13:06:00;95011.41;;;35.21;19.71
11971;BME280;6045;42.682;23.294;2022-10-30T13:08:36;95005.69;;;35.11;20.03
11971;BME280;6045;42.682;23.294;2022-10-30T13:11:10;95011.44;;;35.25;20.43
11971;BME280;6045;42.682;23.294;2022-10-30T13:13:42;94999.25;;;35.33;21.18
11971;BME280;6045;42.682;23.294;2022-10-30T13:16:12;95000.28;;;35.84;19.59